Terminal Aerodrome Forecast
Issued by NWS

Home | Current Version | Previous Version | Text Only | Print | Product List | Glossary On
Versions: 1 2 3 4 5 6 7 8 9 10 11 12 13 14 15
465
FTUS42 KTBW 260538
TAFPIE
TAF
KPIE 260538Z 2606/2706 VRB04KT P6SM VCSH FEW020 FEW100 SCT250
      TEMPO 2606/2609 3SM TSRA BKN020CB
     FM261400 14007KT P6SM SCT025 SCT100
     FM261900 22008KT P6SM VCTS SCT035CB SCT150
     FM270100 VRB04KT P6SM FEW050 SCT100 SCT250=

USA.gov is the U.S. government's official web portal to all federal, state and local government web resources and services.